sensor_id;sensor_type;location;lat;lon;timestamp;temperature;humidity
23815;DHT22;12088;53.078;8.720;2022-10-13T00:01:27;8.00;99.90
23815;DHT22;12088;53.078;8.720;2022-10-13T00:03:53;8.00;99.90
23815;DHT22;12088;53.078;8.720;2022-10-13T00:06:21;8.10;99.90
23815;DHT22;12088;53.078;8.720;2022-10-13T00:08:47;8.20;99.90
23815;DHT22;12088;53.078;8.720;2022-10-13T00:11:17;8.20;99.90
23815;DHT22;12088;53.078;8.720;2022-10-13T00:13:43;8.30;99.90
23815;DHT22;12088;53.078;8.720;2022-10-13T00:16:11;8.30;99.90
23815;DHT22;12088;53.078;8.720;2022-10-13T00:18:37;8.20;99.90
23815;DHT22;12088;53.078;8.720;2022-10-13T00:21:10;8.20;99.90
23815;DHT22;12088;53.078;8.720;2022-10-13T00:23:36;8.20;99.90
23815;DHT22;12088;53.078;8.720;2022-10-13T00:26:04;8.30;99.90
23815;DHT22;12088;53.078;8.720;2022-10-13T00:28:30;8.40;99.90
23815;DHT22;12088;53.078;8.720;2022-10-13T00:30:55;8.30;99.90
23815;DHT22;12088;53.078;8.720;2022-10-13T00:33:21;8.40;99.90
23815;DHT22;12088;53.078;8.720;2022-10-13T00:35:47;8.40;99.90
23815;DHT22;12088;53.078;8.720;2022-10-13T00:38:15;8.30;99.90
23815;DHT22;12088;53.078;8.720;2022-10-13T00:40:43;8.30;99.90
23815;DHT22;12088;53.078;8.720;2022-10-13T00:43:21;8.30;99.90
23815;DHT22;12088;53.078;8.720;2022-10-13T00:45:48;8.30;99.90
23815;DHT22;12088;53.078;8.720;2022-10-13T00:48:23;8.30;99.90
23815;DHT22;12088;53.078;8.720;2022-10-13T00:50:49;8.30;99.90
23815;DHT22;12088;53.078;8.720;2022-10-13T00:53:17;8.40;99.90
23815;DHT22;12088;53.078;8.720;2022-10-13T00:55:45;8.40;99.90
23815;DHT22;12088;53.078;8.720;2022-10-13T00:58:14;8.40;99.90
23815;DHT22;12088;53.078;8.720;2022-10-13T01:00:44;8.40;99.90
23815;DHT22;12088;53.078;8.720;2022-10-13T01:03:10;8.40;99.90
23815;DHT22;12088;53.078;8.720;2022-10-13T01:05:37;8.20;99.90
23815;DHT22;12088;53.078;8.720;2022-10-13T01:08:04;8.20;99.90
23815;DHT22;12088;53.078;8.720;2022-10-13T01:13:33;8.30;99.90
23815;DHT22;12088;53.078;8.720;2022-10-13T01:21:32;8.50;99.90
23815;DHT22;12088;53.078;8.720;2022-10-13T01:30:20;8.80;99.90
23815;DHT22;12088;53.078;8.720;2022-10-13T01:46:38;9.20;99.90
23815;DHT22;12088;53.078;8.720;2022-10-13T01:49:08;9.30;99.90
23815;DHT22;12088;53.078;8.720;2022-10-13T01:51:35;9.20;99.90
23815;DHT22;12088;53.078;8.720;2022-10-13T01:54:01;9.20;99.90
23815;DHT22;12088;53.078;8.720;2022-10-13T01:56:27;9.20;99.90
23815;DHT22;12088;53.078;8.720;2022-10-13T01:58:54;9.10;99.90
23815;DHT22;12088;53.078;8.720;2022-10-13T02:06:52;9.10;99.90
23815;DHT22;12088;53.078;8.720;2022-10-13T02:11:57;9.00;99.90
23815;DHT22;12088;53.078;8.720;2022-10-13T02:14:27;9.00;99.90
23815;DHT22;12088;53.078;8.720;2022-10-13T02:16:55;9.00;99.90
23815;DHT22;12088;53.078;8.720;2022-10-13T02:19:22;9.00;99.90
23815;DHT22;12088;53.078;8.720;2022-10-13T02:21:48;9.00;99.90
23815;DHT22;12088;53.078;8.720;2022-10-13T02:24:14;9.00;99.90
23815;DHT22;12088;53.078;8.720;2022-10-13T02:26:41;9.00;99.90
23815;DHT22;12088;53.078;8.720;2022-10-13T02:29:13;9.00;99.90
23815;DHT22;12088;53.078;8.720;2022-10-13T02:31:39;9.00;99.90
23815;DHT22;12088;53.078;8.720;2022-10-13T02:34:06;9.00;99.90
23815;DHT22;12088;53.078;8.720;2022-10-13T02:36:32;8.90;99.90
23815;DHT22;12088;53.078;8.720;2022-10-13T02:38:57;9.00;99.90
23815;DHT22;12088;53.078;8.720;2022-10-13T02:41:23;9.00;99.90
23815;DHT22;12088;53.078;8.720;2022-10-13T02:43:49;9.00;99.90
23815;DHT22;12088;53.078;8.720;2022-10-13T02:46:14;8.90;99.90
23815;DHT22;12088;53.078;8.720;2022-10-13T02:48:40;9.00;99.90
23815;DHT22;12088;53.078;8.720;2022-10-13T02:51:05;8.90;99.90
23815;DHT22;12088;53.078;8.720;2022-10-13T02:53:31;8.90;99.90
23815;DHT22;12088;53.078;8.720;2022-10-13T02:55:57;8.80;99.90
23815;DHT22;12088;53.078;8.720;2022-10-13T02:58:22;8.90;99.90
23815;DHT22;12088;53.078;8.720;2022-10-13T03:00:49;8.90;99.90
23815;DHT22;12088;53.078;8.720;2022-10-13T03:03:15;8.90;99.90
23815;DHT22;12088;53.078;8.720;2022-10-13T03:05:40;9.00;99.90
23815;DHT22;12088;53.078;8.720;2022-10-13T03:08:06;9.00;99.90
23815;DHT22;12088;53.078;8.720;2022-10-13T03:10:32;9.00;99.90
23815;DHT22;12088;53.078;8.720;2022-10-13T03:12:57;9.10;99.90
23815;DHT22;12088;53.078;8.720;2022-10-13T03:15:23;9.10;99.90
23815;DHT22;12088;53.078;8.720;2022-10-13T03:17:49;9.10;99.90
23815;DHT22;12088;53.078;8.720;2022-10-13T03:20:15;9.20;99.90
23815;DHT22;12088;53.078;8.720;2022-10-13T03:22:40;9.20;99.90
23815;DHT22;12088;53.078;8.720;2022-10-13T03:25:06;9.10;99.90
23815;DHT22;12088;53.078;8.720;2022-10-13T03:27:32;9.10;99.90
23815;DHT22;12088;53.078;8.720;2022-10-13T03:29:57;9.10;99.90
23815;DHT22;12088;53.078;8.720;2022-10-13T03:32:23;9.10;99.90
23815;DHT22;12088;53.078;8.720;2022-10-13T03:34:49;9.10;99.90
23815;DHT22;12088;53.078;8.720;2022-10-13T03:37:15;9.10;99.90
23815;DHT22;12088;53.078;8.720;2022-10-13T03:39:41;9.10;99.90
23815;DHT22;12088;53.078;8.720;2022-10-13T03:42:07;9.20;99.90
23815;DHT22;12088;53.078;8.720;2022-10-13T03:44:32;9.20;99.90
23815;DHT22;12088;53.078;8.720;2022-10-13T03:46:58;9.30;99.90
23815;DHT22;12088;53.078;8.720;2022-10-13T03:49:24;9.30;99.90
23815;DHT22;12088;53.078;8.720;2022-10-13T03:51:49;9.20;99.90
23815;DHT22;12088;53.078;8.720;2022-10-13T03:54:15;9.20;99.90
23815;DHT22;12088;53.078;8.720;2022-10-13T03:56:41;9.20;99.90
23815;DHT22;12088;53.078;8.720;2022-10-13T03:59:07;9.20;99.90
23815;DHT22;12088;53.078;8.720;2022-10-13T04:01:34;9.20;99.90
23815;DHT22;12088;53.078;8.720;2022-10-13T04:04:00;9.40;99.90
23815;DHT22;12088;53.078;8.720;2022-10-13T04:06:29;9.30;99.90
23815;DHT22;12088;53.078;8.720;2022-10-13T04:08:56;9.30;99.90
23815;DHT22;12088;53.078;8.720;2022-10-13T04:11:22;9.30;99.90
23815;DHT22;12088;53.078;8.720;2022-10-13T04:13:48;9.30;99.90
23815;DHT22;12088;53.078;8.720;2022-10-13T04:16:19;9.20;99.90
23815;DHT22;12088;53.078;8.720;2022-10-13T04:18:53;9.20;99.90
23815;DHT22;12088;53.078;8.720;2022-10-13T04:21:20;9.30;99.90
23815;DHT22;12088;53.078;8.720;2022-10-13T04:23:45;9.20;99.90
23815;DHT22;12088;53.078;8.720;2022-10-13T04:26:16;9.30;99.90
23815;DHT22;12088;53.078;8.720;2022-10-13T04:28:43;9.30;99.90
23815;DHT22;12088;53.078;8.720;2022-10-13T04:31:09;9.40;99.90
23815;DHT22;12088;53.078;8.720;2022-10-13T04:33:34;9.40;99.90
23815;DHT22;12088;53.078;8.720;2022-10-13T04:36:03;9.40;99.90
23815;DHT22;12088;53.078;8.720;2022-10-13T04:38:29;9.30;99.90
23815;DHT22;12088;53.078;8.720;2022-10-13T04:40:55;9.30;99.90
23815;DHT22;12088;53.078;8.720;2022-10-13T04:43:20;9.30;99.90
23815;DHT22;12088;53.078;8.720;2022-10-13T04:45:46;9.40;99.90
23815;DHT22;12088;53.078;8.720;2022-10-13T04:48:11;9.40;99.90
23815;DHT22;12088;53.078;8.720;2022-10-13T04:50:37;9.40;99.90
23815;DHT22;12088;53.078;8.720;2022-10-13T04:53:02;9.40;99.90
23815;DHT22;12088;53.078;8.720;2022-10-13T04:55:28;9.40;99.90
23815;DHT22;12088;53.078;8.720;2022-10-13T04:57:53;9.50;99.90
23815;DHT22;12088;53.078;8.720;2022-10-13T05:00:19;9.50;99.90
23815;DHT22;12088;53.078;8.720;2022-10-13T05:02:44;9.50;99.90
23815;DHT22;12088;53.078;8.720;2022-10-13T05:05:10;9.50;99.90
23815;DHT22;12088;53.078;8.720;2022-10-13T05:07:36;9.60;99.90
23815;DHT22;12088;53.078;8.720;2022-10-13T05:10:01;9.50;99.90
23815;DHT22;12088;53.078;8.720;2022-10-13T05:12:27;9.60;99.90
23815;DHT22;12088;53.078;8.720;2022-10-13T05:14:53;9.60;99.90
23815;DHT22;12088;53.078;8.720;2022-10-13T05:17:18;9.60;99.90
23815;DHT22;12088;53.078;8.720;2022-10-13T05:19:44;9.60;99.90
23815;DHT22;12088;53.078;8.720;2022-10-13T05:22:09;9.60;99.90
23815;DHT22;12088;53.078;8.720;2022-10-13T05:24:35;9.50;99.90
23815;DHT22;12088;53.078;8.720;2022-10-13T05:27:09;9.50;99.90
23815;DHT22;12088;53.078;8.720;2022-10-13T05:29:35;9.50;99.90
23815;DHT22;12088;53.078;8.720;2022-10-13T05:32:01;9.50;99.90
23815;DHT22;12088;53.078;8.720;2022-10-13T05:34:27;9.50;99.90
23815;DHT22;12088;53.078;8.720;2022-10-13T05:36:52;9.50;99.90
23815;DHT22;12088;53.078;8.720;2022-10-13T05:39:18;9.50;99.90
23815;DHT22;12088;53.078;8.720;2022-10-13T05:41:43;9.50;99.90
23815;DHT22;12088;53.078;8.720;2022-10-13T05:44:09;9.50;99.90
23815;DHT22;12088;53.078;8.720;2022-10-13T05:46:35;9.50;99.90
23815;DHT22;12088;53.078;8.720;2022-10-13T05:49:01;9.60;99.90
23815;DHT22;12088;53.078;8.720;2022-10-13T05:51:31;9.50;99.90
23815;DHT22;12088;53.078;8.720;2022-10-13T05:54:03;9.60;99.90
23815;DHT22;12088;53.078;8.720;2022-10-13T05:56:40;9.70;99.90
23815;DHT22;12088;53.078;8.720;2022-10-13T05:59:08;9.60;99.90
23815;DHT22;12088;53.078;8.720;2022-10-13T06:01:38;9.60;99.90
23815;DHT22;12088;53.078;8.720;2022-10-13T06:04:08;9.60;99.90
23815;DHT22;12088;53.078;8.720;2022-10-13T06:06:35;9.70;99.90
23815;DHT22;12088;53.078;8.720;2022-10-13T06:09:01;9.70;99.90
23815;DHT22;12088;53.078;8.720;2022-10-13T06:11:26;9.70;99.90
23815;DHT22;12088;53.078;8.720;2022-10-13T06:13:52;9.80;99.90
23815;DHT22;12088;53.078;8.720;2022-10-13T06:16:17;9.80;99.90
23815;DHT22;12088;53.078;8.720;2022-10-13T06:18:43;9.90;99.90
23815;DHT22;12088;53.078;8.720;2022-10-13T06:21:08;9.90;99.90
23815;DHT22;12088;53.078;8.720;2022-10-13T06:23:34;9.90;99.90
23815;DHT22;12088;53.078;8.720;2022-10-13T06:25:59;10.00;99.90
23815;DHT22;12088;53.078;8.720;2022-10-13T06:28:26;10.10;99.90
23815;DHT22;12088;53.078;8.720;2022-10-13T06:30:51;10.10;99.90
23815;DHT22;12088;53.078;8.720;2022-10-13T06:33:22;10.20;99.90
23815;DHT22;12088;53.078;8.720;2022-10-13T06:35:49;10.30;99.90
23815;DHT22;12088;53.078;8.720;2022-10-13T06:38:15;10.30;99.90
23815;DHT22;12088;53.078;8.720;2022-10-13T06:40:40;10.30;99.90
23815;DHT22;12088;53.078;8.720;2022-10-13T06:43:06;10.40;99.90
23815;DHT22;12088;53.078;8.720;2022-10-13T06:45:32;10.40;99.90
23815;DHT22;12088;53.078;8.720;2022-10-13T06:47:57;10.50;99.90
23815;DHT22;12088;53.078;8.720;2022-10-13T06:50:23;10.50;99.90
23815;DHT22;12088;53.078;8.720;2022-10-13T06:52:49;10.50;99.90
23815;DHT22;12088;53.078;8.720;2022-10-13T06:55:14;10.50;99.90
23815;DHT22;12088;53.078;8.720;2022-10-13T06:57:40;10.50;99.90
23815;DHT22;12088;53.078;8.720;2022-10-13T07:00:06;10.50;99.90
23815;DHT22;12088;53.078;8.720;2022-10-13T07:02:32;10.40;99.90
23815;DHT22;12088;53.078;8.720;2022-10-13T07:04:57;10.40;99.90
23815;DHT22;12088;53.078;8.720;2022-10-13T07:07:23;10.40;99.90
23815;DHT22;12088;53.078;8.720;2022-10-13T07:09:49;10.60;99.90
23815;DHT22;12088;53.078;8.720;2022-10-13T07:12:14;10.60;99.90
23815;DHT22;12088;53.078;8.720;2022-10-13T07:14:40;10.70;99.90
23815;DHT22;12088;53.078;8.720;2022-10-13T07:17:06;10.80;99.90
23815;DHT22;12088;53.078;8.720;2022-10-13T07:19:31;11.00;99.90
23815;DHT22;12088;53.078;8.720;2022-10-13T07:21:57;11.00;99.90
23815;DHT22;12088;53.078;8.720;2022-10-13T07:24:23;11.00;99.90
23815;DHT22;12088;53.078;8.720;2022-10-13T07:26:48;11.10;99.90
23815;DHT22;12088;53.078;8.720;2022-10-13T07:29:14;11.20;99.90
23815;DHT22;12088;53.078;8.720;2022-10-13T07:31:42;11.20;99.90
23815;DHT22;12088;53.078;8.720;2022-10-13T07:34:07;11.30;99.90
23815;DHT22;12088;53.078;8.720;2022-10-13T07:36:33;11.30;99.90
23815;DHT22;12088;53.078;8.720;2022-10-13T07:39:03;11.40;99.90
23815;DHT22;12088;53.078;8.720;2022-10-13T07:41:28;11.50;99.90
23815;DHT22;12088;53.078;8.720;2022-10-13T07:43:55;11.50;99.90
23815;DHT22;12088;53.078;8.720;2022-10-13T07:46:20;11.50;99.90
23815;DHT22;12088;53.078;8.720;2022-10-13T07:48:46;11.60;99.90
23815;DHT22;12088;53.078;8.720;2022-10-13T07:51:12;11.60;99.90
23815;DHT22;12088;53.078;8.720;2022-10-13T07:53:39;11.70;99.90
23815;DHT22;12088;53.078;8.720;2022-10-13T07:56:06;11.70;99.90
23815;DHT22;12088;53.078;8.720;2022-10-13T07:58:36;11.80;99.90
23815;DHT22;12088;53.078;8.720;2022-10-13T08:01:02;11.90;99.90
23815;DHT22;12088;53.078;8.720;2022-10-13T08:03:28;12.00;99.90
23815;DHT22;12088;53.078;8.720;2022-10-13T08:05:56;12.10;99.90
23815;DHT22;12088;53.078;8.720;2022-10-13T08:08:22;12.10;99.90
23815;DHT22;12088;53.078;8.720;2022-10-13T08:10:47;12.30;99.90
23815;DHT22;12088;53.078;8.720;2022-10-13T08:13:13;12.40;99.90
23815;DHT22;12088;53.078;8.720;2022-10-13T08:15:40;12.50;99.90
23815;DHT22;12088;53.078;8.720;2022-10-13T08:18:07;12.80;99.90
23815;DHT22;12088;53.078;8.720;2022-10-13T08:20:33;12.90;99.90
23815;DHT22;12088;53.078;8.720;2022-10-13T08:22:59;13.00;99.90
23815;DHT22;12088;53.078;8.720;2022-10-13T08:25:25;13.10;99.90
23815;DHT22;12088;53.078;8.720;2022-10-13T08:27:50;13.20;99.90
23815;DHT22;12088;53.078;8.720;2022-10-13T08:30:16;13.80;99.90
23815;DHT22;12088;53.078;8.720;2022-10-13T08:32:42;14.30;99.90
23815;DHT22;12088;53.078;8.720;2022-10-13T08:35:08;14.60;99.90
23815;DHT22;12088;53.078;8.720;2022-10-13T08:37:34;14.80;99.90
23815;DHT22;12088;53.078;8.720;2022-10-13T08:39:59;14.90;99.90
23815;DHT22;12088;53.078;8.720;2022-10-13T08:42:25;15.00;99.90
23815;DHT22;12088;53.078;8.720;2022-10-13T08:44:57;15.10;99.90
23815;DHT22;12088;53.078;8.720;2022-10-13T08:48:00;15.20;99.90
23815;DHT22;12088;53.078;8.720;2022-10-13T08:50:23;15.00;99.90
23815;DHT22;12088;53.078;8.720;2022-10-13T08:55:27;14.40;99.90
23815;DHT22;12088;53.078;8.720;2022-10-13T08:57:54;14.40;99.90
23815;DHT22;12088;53.078;8.720;2022-10-13T09:00:20;14.70;99.90
23815;DHT22;12088;53.078;8.720;2022-10-13T09:02:45;14.80;99.90
23815;DHT22;12088;53.078;8.720;2022-10-13T09:05:25;14.90;99.90
23815;DHT22;12088;53.078;8.720;2022-10-13T09:07:52;15.10;99.90
23815;DHT22;12088;53.078;8.720;2022-10-13T09:10:19;15.10;99.90
23815;DHT22;12088;53.078;8.720;2022-10-13T09:12:44;15.20;99.90
23815;DHT22;12088;53.078;8.720;2022-10-13T09:15:11;15.20;99.90
23815;DHT22;12088;53.078;8.720;2022-10-13T09:17:39;15.20;99.90
23815;DHT22;12088;53.078;8.720;2022-10-13T09:20:19;15.10;99.90
23815;DHT22;12088;53.078;8.720;2022-10-13T09:23:01;15.20;99.90
23815;DHT22;12088;53.078;8.720;2022-10-13T09:25:28;15.50;99.90
23815;DHT22;12088;53.078;8.720;2022-10-13T09:27:57;15.60;99.90
23815;DHT22;12088;53.078;8.720;2022-10-13T09:32:58;17.00;99.90
23815;DHT22;12088;53.078;8.720;2022-10-13T09:35:29;18.00;99.90
23815;DHT22;12088;53.078;8.720;2022-10-13T09:40:35;19.40;99.90
23815;DHT22;12088;53.078;8.720;2022-10-13T09:43:04;19.40;99.90
23815;DHT22;12088;53.078;8.720;2022-10-13T09:45:31;19.80;99.90
23815;DHT22;12088;53.078;8.720;2022-10-13T09:48:05;19.50;99.90
23815;DHT22;12088;53.078;8.720;2022-10-13T09:50:34;18.40;99.90
23815;DHT22;12088;53.078;8.720;2022-10-13T09:53:30;18.10;99.90
23815;DHT22;12088;53.078;8.720;2022-10-13T09:56:17;19.10;99.90
23815;DHT22;12088;53.078;8.720;2022-10-13T10:01:35;20.90;99.90
23815;DHT22;12088;53.078;8.720;2022-10-13T10:04:20;19.70;99.90
23815;DHT22;12088;53.078;8.720;2022-10-13T10:06:46;19.60;99.90
23815;DHT22;12088;53.078;8.720;2022-10-13T10:09:33;20.30;99.90
23815;DHT22;12088;53.078;8.720;2022-10-13T10:12:02;21.70;99.90
23815;DHT22;12088;53.078;8.720;2022-10-13T10:14:35;22.50;99.90
23815;DHT22;12088;53.078;8.720;2022-10-13T10:17:27;23.20;99.90
23815;DHT22;12088;53.078;8.720;2022-10-13T10:22:49;23.60;99.90
23815;DHT22;12088;53.078;8.720;2022-10-13T10:25:28;23.50;99.90
23815;DHT22;12088;53.078;8.720;2022-10-13T10:30:56;22.30;99.90
23815;DHT22;12088;53.078;8.720;2022-10-13T10:39:19;19.10;99.90
23815;DHT22;12088;53.078;8.720;2022-10-13T10:41:57;19.00;99.90
23815;DHT22;12088;53.078;8.720;2022-10-13T10:44:35;19.50;99.90
23815;DHT22;12088;53.078;8.720;2022-10-13T10:47:27;19.40;99.90
23815;DHT22;12088;53.078;8.720;2022-10-13T10:50:02;19.60;99.90
23815;DHT22;12088;53.078;8.720;2022-10-13T11:00:21;18.40;99.90
23815;DHT22;12088;53.078;8.720;2022-10-13T11:05:19;18.40;99.90
23815;DHT22;12088;53.078;8.720;2022-10-13T11:12:48;18.20;99.90
23815;DHT22;12088;53.078;8.720;2022-10-13T11:15:44;18.20;99.90
23815;DHT22;12088;53.078;8.720;2022-10-13T11:19:26;18.40;99.90
23815;DHT22;12088;53.078;8.720;2022-10-13T11:21:24;18.50;99.90
23815;DHT22;12088;53.078;8.720;2022-10-13T11:23:50;18.50;99.90
23815;DHT22;12088;53.078;8.720;2022-10-13T11:26:28;18.40;99.90
23815;DHT22;12088;53.078;8.720;2022-10-13T11:28:56;18.30;99.90
23815;DHT22;12088;53.078;8.720;2022-10-13T11:31:46;18.10;99.90
23815;DHT22;12088;53.078;8.720;2022-10-13T11:34:27;17.90;99.90
23815;DHT22;12088;53.078;8.720;2022-10-13T11:36:57;17.70;99.90
23815;DHT22;12088;53.078;8.720;2022-10-13T11:47:36;17.30;99.90
23815;DHT22;12088;53.078;8.720;2022-10-13T11:53:01;17.30;99.90
23815;DHT22;12088;53.078;8.720;2022-10-13T11:55:51;17.00;99.90
23815;DHT22;12088;53.078;8.720;2022-10-13T12:00:56;17.00;99.90
23815;DHT22;12088;53.078;8.720;2022-10-13T12:05:53;17.60;99.90
23815;DHT22;12088;53.078;8.720;2022-10-13T12:08:20;17.90;99.90
23815;DHT22;12088;53.078;8.720;2022-10-13T12:10:51;18.30;99.90
23815;DHT22;12088;53.078;8.720;2022-10-13T12:13:28;18.90;99.90
23815;DHT22;12088;53.078;8.720;2022-10-13T12:16:00;19.80;99.90
23815;DHT22;12088;53.078;8.720;2022-10-13T12:18:32;20.20;99.90
23815;DHT22;12088;53.078;8.720;2022-10-13T12:21:07;20.10;99.90
23815;DHT22;12088;53.078;8.720;2022-10-13T12:23:33;19.30;99.90
23815;DHT22;12088;53.078;8.720;2022-10-13T12:25:59;18.20;99.90
23815;DHT22;12088;53.078;8.720;2022-10-13T12:28:28;17.30;99.90
23815;DHT22;12088;53.078;8.720;2022-10-13T12:30:56;17.00;99.90
23815;DHT22;12088;53.078;8.720;2022-10-13T12:33:31;16.90;99.90
23815;DHT22;12088;53.078;8.720;2022-10-13T12:36:16;16.60;99.90
23815;DHT22;12088;53.078;8.720;2022-10-13T12:38:47;16.60;99.90
23815;DHT22;12088;53.078;8.720;2022-10-13T12:41:16;16.40;99.90
23815;DHT22;12088;53.078;8.720;2022-10-13T12:43:43;16.20;99.90
23815;DHT22;12088;53.078;8.720;2022-10-13T12:46:09;16.20;99.90
23815;DHT22;12088;53.078;8.720;2022-10-13T12:48:36;16.20;99.90
23815;DHT22;12088;53.078;8.720;2022-10-13T12:51:14;16.40;99.90
23815;DHT22;12088;53.078;8.720;2022-10-13T12:53:41;16.40;99.90
23815;DHT22;12088;53.078;8.720;2022-10-13T12:56:19;16.50;99.90
23815;DHT22;12088;53.078;8.720;2022-10-13T12:58:46;16.40;99.90
23815;DHT22;12088;53.078;8.720;2022-10-13T13:03:39;16.40;99.90
23815;DHT22;12088;53.078;8.720;2022-10-13T13:06:09;16.40;99.90
23815;DHT22;12088;53.078;8.720;2022-10-13T13:08:35;16.50;99.90
23815;DHT22;12088;53.078;8.720;2022-10-13T13:11:03;16.30;99.90
23815;DHT22;12088;53.078;8.720;2022-10-13T13:13:29;16.00;99.90
23815;DHT22;12088;53.078;8.720;2022-10-13T13:16:23;16.00;99.90
23815;DHT22;12088;53.078;8.720;2022-10-13T13:18:50;16.10;99.90
23815;DHT22;12088;53.078;8.720;2022-10-13T13:21:17;16.20;99.90
23815;DHT22;12088;53.078;8.720;2022-10-13T13:23:51;16.20;99.90
23815;DHT22;12088;53.078;8.720;2022-10-13T13:26:20;16.20;99.90
23815;DHT22;12088;53.078;8.720;2022-10-13T13:31:14;16.20;99.90
23815;DHT22;12088;53.078;8.720;2022-10-13T13:33:40;16.30;99.90
23815;DHT22;12088;53.078;8.720;2022-10-13T13:36:24;16.50;99.90
23815;DHT22;12088;53.078;8.720;2022-10-13T13:38:51;17.50;99.90
23815;DHT22;12088;53.078;8.720;2022-10-13T13:41:18;17.90;99.90
23815;DHT22;12088;53.078;8.720;2022-10-13T13:43:44;18.00;99.90
23815;DHT22;12088;53.078;8.720;2022-10-13T13:46:23;18.00;99.90
23815;DHT22;12088;53.078;8.720;2022-10-13T13:48:49;18.20;99.90
23815;DHT22;12088;53.078;8.720;2022-10-13T13:51:15;18.30;99.90
23815;DHT22;12088;53.078;8.720;2022-10-13T13:53:41;18.00;99.90
23815;DHT22;12088;53.078;8.720;2022-10-13T13:56:11;17.60;99.90
23815;DHT22;12088;53.078;8.720;2022-10-13T13:58:37;17.30;99.90
23815;DHT22;12088;53.078;8.720;2022-10-13T14:01:02;17.00;99.90
23815;DHT22;12088;53.078;8.720;2022-10-13T14:03:28;16.80;99.90
23815;DHT22;12088;53.078;8.720;2022-10-13T14:05:53;16.50;99.90
23815;DHT22;12088;53.078;8.720;2022-10-13T14:08:19;16.30;99.90
23815;DHT22;12088;53.078;8.720;2022-10-13T14:10:44;16.10;99.90
23815;DHT22;12088;53.078;8.720;2022-10-13T14:13:10;15.90;99.90
23815;DHT22;12088;53.078;8.720;2022-10-13T14:15:35;15.90;99.90
23815;DHT22;12088;53.078;8.720;2022-10-13T14:18:01;15.90;99.90
23815;DHT22;12088;53.078;8.720;2022-10-13T14:20:26;15.90;99.90
23815;DHT22;12088;53.078;8.720;2022-10-13T14:22:52;16.00;99.90
23815;DHT22;12088;53.078;8.720;2022-10-13T14:25:18;15.90;99.90
23815;DHT22;12088;53.078;8.720;2022-10-13T14:27:43;15.90;99.90
23815;DHT22;12088;53.078;8.720;2022-10-13T14:30:10;15.90;99.90
23815;DHT22;12088;53.078;8.720;2022-10-13T14:32:36;15.90;99.90
23815;DHT22;12088;53.078;8.720;2022-10-13T14:35:03;15.80;99.90
23815;DHT22;12088;53.078;8.720;2022-10-13T14:37:29;15.80;99.90
23815;DHT22;12088;53.078;8.720;2022-10-13T14:39:54;15.70;99.90
23815;DHT22;12088;53.078;8.720;2022-10-13T14:42:20;15.60;99.90
23815;DHT22;12088;53.078;8.720;2022-10-13T14:44:46;15.50;99.90
23815;DHT22;12088;53.078;8.720;2022-10-13T14:47:11;15.50;99.90
23815;DHT22;12088;53.078;8.720;2022-10-13T14:49:37;15.40;99.90
23815;DHT22;12088;53.078;8.720;2022-10-13T14:52:03;15.40;99.90
23815;DHT22;12088;53.078;8.720;2022-10-13T14:54:29;15.40;99.90
23815;DHT22;12088;53.078;8.720;2022-10-13T14:56:54;15.30;99.90
23815;DHT22;12088;53.078;8.720;2022-10-13T14:59:20;15.30;99.90
23815;DHT22;12088;53.078;8.720;2022-10-13T15:01:47;15.30;99.90
23815;DHT22;12088;53.078;8.720;2022-10-13T15:04:12;15.20;99.90
23815;DHT22;12088;53.078;8.720;2022-10-13T15:06:38;15.30;99.90
23815;DHT22;12088;53.078;8.720;2022-10-13T15:09:04;15.30;99.90
23815;DHT22;12088;53.078;8.720;2022-10-13T15:11:30;15.30;99.90
23815;DHT22;12088;53.078;8.720;2022-10-13T15:13:56;15.30;99.90
23815;DHT22;12088;53.078;8.720;2022-10-13T15:16:23;15.30;99.90
23815;DHT22;12088;53.078;8.720;2022-10-13T15:18:49;15.30;99.90
23815;DHT22;12088;53.078;8.720;2022-10-13T15:21:16;15.30;99.90
23815;DHT22;12088;53.078;8.720;2022-10-13T15:23:42;15.40;99.90
23815;DHT22;12088;53.078;8.720;2022-10-13T15:26:08;15.40;99.90
23815;DHT22;12088;53.078;8.720;2022-10-13T15:28:46;15.30;99.90
23815;DHT22;12088;53.078;8.720;2022-10-13T15:31:12;15.40;99.90
23815;DHT22;12088;53.078;8.720;2022-10-13T15:33:41;15.40;99.90
23815;DHT22;12088;53.078;8.720;2022-10-13T15:36:08;15.40;99.90
23815;DHT22;12088;53.078;8.720;2022-10-13T15:38:33;15.40;99.90
23815;DHT22;12088;53.078;8.720;2022-10-13T15:41:00;15.30;99.90
23815;DHT22;12088;53.078;8.720;2022-10-13T15:43:26;15.30;99.90
23815;DHT22;12088;53.078;8.720;2022-10-13T15:45:54;15.20;99.90
23815;DHT22;12088;53.078;8.720;2022-10-13T15:48:20;15.20;99.90
23815;DHT22;12088;53.078;8.720;2022-10-13T15:50:46;15.10;99.90
23815;DHT22;12088;53.078;8.720;2022-10-13T15:53:11;15.10;99.90
23815;DHT22;12088;53.078;8.720;2022-10-13T15:55:38;15.10;99.90
23815;DHT22;12088;53.078;8.720;2022-10-13T15:58:05;15.10;99.90
23815;DHT22;12088;53.078;8.720;2022-10-13T16:00:30;14.90;99.90
23815;DHT22;12088;53.078;8.720;2022-10-13T16:02:56;14.80;99.90
23815;DHT22;12088;53.078;8.720;2022-10-13T16:05:21;14.90;99.90
23815;DHT22;12088;53.078;8.720;2022-10-13T16:07:47;14.90;99.90
23815;DHT22;12088;53.078;8.720;2022-10-13T16:10:13;14.80;99.90
23815;DHT22;12088;53.078;8.720;2022-10-13T16:12:40;14.80;99.90
23815;DHT22;12088;53.078;8.720;2022-10-13T16:15:06;14.60;99.90
23815;DHT22;12088;53.078;8.720;2022-10-13T16:17:32;14.70;99.90
23815;DHT22;12088;53.078;8.720;2022-10-13T16:19:58;14.70;99.90
23815;DHT22;12088;53.078;8.720;2022-10-13T16:22:23;14.60;99.90
23815;DHT22;12088;53.078;8.720;2022-10-13T16:24:49;14.50;99.90
23815;DHT22;12088;53.078;8.720;2022-10-13T16:27:15;14.50;99.90
23815;DHT22;12088;53.078;8.720;2022-10-13T16:29:41;14.40;99.90
23815;DHT22;12088;53.078;8.720;2022-10-13T16:32:06;14.50;99.90
23815;DHT22;12088;53.078;8.720;2022-10-13T16:34:32;14.30;99.90
23815;DHT22;12088;53.078;8.720;2022-10-13T16:36:57;14.20;99.90
23815;DHT22;12088;53.078;8.720;2022-10-13T16:39:23;14.20;99.90
23815;DHT22;12088;53.078;8.720;2022-10-13T16:41:49;14.20;99.90
23815;DHT22;12088;53.078;8.720;2022-10-13T16:44:16;14.10;99.90
23815;DHT22;12088;53.078;8.720;2022-10-13T16:46:42;14.10;99.90
23815;DHT22;12088;53.078;8.720;2022-10-13T16:49:09;14.20;99.90
23815;DHT22;12088;53.078;8.720;2022-10-13T16:51:35;14.10;99.90
23815;DHT22;12088;53.078;8.720;2022-10-13T16:54:01;14.10;99.90
23815;DHT22;12088;53.078;8.720;2022-10-13T16:56:27;14.10;99.90
23815;DHT22;12088;53.078;8.720;2022-10-13T16:58:59;14.10;99.90
23815;DHT22;12088;53.078;8.720;2022-10-13T17:01:25;14.10;99.90
23815;DHT22;12088;53.078;8.720;2022-10-13T17:03:52;14.10;99.90
23815;DHT22;12088;53.078;8.720;2022-10-13T17:06:20;14.10;99.90
23815;DHT22;12088;53.078;8.720;2022-10-13T17:08:46;14.10;99.90
23815;DHT22;12088;53.078;8.720;2022-10-13T17:11:20;14.10;99.90
23815;DHT22;12088;53.078;8.720;2022-10-13T17:13:46;14.00;99.90
23815;DHT22;12088;53.078;8.720;2022-10-13T17:16:12;13.90;99.90
23815;DHT22;12088;53.078;8.720;2022-10-13T17:18:38;14.00;99.90